createdAt,value
2022-11-10T00:01:06.310Z,1.70
2022-11-10T00:03:33.938Z,1.40
2022-11-10T00:06:03.317Z,2.67
2022-11-10T00:08:30.423Z,1.80
2022-11-10T00:11:01.838Z,1.53
2022-11-10T00:13:31.645Z,1.80
2022-11-10T00:16:22.341Z,1.70
2022-11-10T00:18:49.355Z,1.70
2022-11-10T00:21:17.533Z,1.60
2022-11-10T00:23:47.388Z,1.60
2022-11-10T00:26:17.584Z,1.90
2022-11-10T00:28:44.887Z,1.87
2022-11-10T00:31:12.298Z,2.10
2022-11-10T00:33:40.988Z,1.87
2022-11-10T00:36:07.808Z,2.37
2022-11-10T00:38:34.860Z,1.70
2022-11-10T00:41:02.060Z,2.13
2022-11-10T00:43:29.931Z,2.23
2022-11-10T00:45:57.282Z,1.50
2022-11-10T00:48:24.366Z,1.77
2022-11-10T00:50:51.375Z,2.37
2022-11-10T00:53:18.834Z,1.90
2022-11-10T00:55:46.138Z,2.10
2022-11-10T00:58:13.254Z,1.80
2022-11-10T01:00:40.420Z,1.60
2022-11-10T01:03:07.653Z,2.00
2022-11-10T01:05:37.986Z,2.00
2022-11-10T01:08:05.114Z,2.33
2022-11-10T01:10:31.984Z,1.40
2022-11-10T01:12:59.109Z,2.60
2022-11-10T01:15:28.027Z,2.37
2022-11-10T01:17:56.265Z,2.50
2022-11-10T01:20:23.969Z,2.00
2022-11-10T01:22:51.079Z,2.07
2022-11-10T01:25:18.162Z,1.50
2022-11-10T01:27:45.293Z,2.10
2022-11-10T01:30:12.544Z,2.00
2022-11-10T01:32:39.123Z,2.27
2022-11-10T01:35:06.551Z,2.27
2022-11-10T01:37:33.132Z,2.63
2022-11-10T01:40:00.261Z,2.23
2022-11-10T01:42:37.657Z,1.73
2022-11-10T01:45:22.815Z,2.00
2022-11-10T01:48:02.978Z,1.70
2022-11-10T01:50:33.431Z,2.57
2022-11-10T01:53:03.367Z,2.43
2022-11-10T01:55:30.976Z,1.80
2022-11-10T01:57:57.807Z,1.67
2022-11-10T02:00:25.076Z,1.90
2022-11-10T02:03:02.303Z,2.43
2022-11-10T02:05:29.477Z,1.90
2022-11-10T02:07:57.262Z,2.93
2022-11-10T02:10:24.290Z,1.80
2022-11-10T02:12:51.405Z,2.23
2022-11-10T02:15:19.144Z,2.40
2022-11-10T02:17:49.095Z,2.27
2022-11-10T02:20:18.371Z,2.00
2022-11-10T02:22:45.703Z,2.63
2022-11-10T02:25:15.644Z,2.10
2022-11-10T02:27:42.701Z,2.70
2022-11-10T02:30:09.881Z,2.67
2022-11-10T02:32:36.535Z,2.43
2022-11-10T02:35:03.626Z,2.77
2022-11-10T02:37:30.611Z,3.40
2022-11-10T02:39:57.586Z,2.83
2022-11-10T02:42:24.184Z,2.40
2022-11-10T02:44:51.120Z,2.63
2022-11-10T02:47:18.119Z,2.10
2022-11-10T02:49:45.315Z,2.10
2022-11-10T02:52:12.369Z,2.20
2022-11-10T02:54:38.928Z,1.90
2022-11-10T02:57:05.497Z,2.33
2022-11-10T02:59:32.562Z,2.77
2022-11-10T03:01:59.537Z,2.20
2022-11-10T03:04:26.595Z,2.13
2022-11-10T03:06:53.231Z,2.40
2022-11-10T03:09:20.365Z,1.90
2022-11-10T03:11:47.355Z,2.67
2022-11-10T03:14:13.994Z,2.20
2022-11-10T03:16:41.013Z,2.80
2022-11-10T03:19:07.575Z,2.13
2022-11-10T03:21:34.156Z,2.33
2022-11-10T03:24:01.176Z,2.23
2022-11-10T03:26:28.162Z,2.30
2022-11-10T03:28:55.188Z,2.43
2022-11-10T03:31:21.757Z,3.20
2022-11-10T03:33:48.772Z,2.53
2022-11-10T03:36:15.404Z,2.60
2022-11-10T03:38:42.408Z,2.40
2022-11-10T03:41:24.618Z,2.37
2022-11-10T03:43:51.837Z,2.90
2022-11-10T03:46:18.769Z,2.80
2022-11-10T03:48:51.885Z,2.57
2022-11-10T03:51:20.418Z,2.50
2022-11-10T03:53:47.537Z,2.70
2022-11-10T03:56:14.555Z,3.00
2022-11-10T03:58:42.017Z,2.93
2022-11-10T04:01:09.412Z,2.70
2022-11-10T04:03:36.410Z,2.47
2022-11-10T04:06:21.671Z,2.80
2022-11-10T04:09:01.109Z,3.23
2022-11-10T04:11:48.387Z,2.80
2022-11-10T04:14:34.301Z,3.37
2022-11-10T04:17:01.572Z,2.40
2022-11-10T04:19:28.758Z,2.97
2022-11-10T04:21:55.759Z,3.30
2022-11-10T04:24:22.783Z,2.87
2022-11-10T04:26:50.132Z,2.93
2022-11-10T04:29:19.224Z,2.70
2022-11-10T04:31:46.225Z,4.20
2022-11-10T04:34:15.213Z,3.03
2022-11-10T04:36:43.530Z,3.17
2022-11-10T04:39:10.800Z,2.40
2022-11-10T04:41:37.759Z,2.83
2022-11-10T04:44:04.952Z,2.93
2022-11-10T04:46:31.939Z,3.30
2022-11-10T04:48:59.061Z,3.23
2022-11-10T04:51:31.347Z,2.40
2022-11-10T04:53:58.572Z,3.07
2022-11-10T04:56:26.661Z,3.47
2022-11-10T04:58:54.320Z,3.27
2022-11-10T05:01:23.932Z,3.07
2022-11-10T05:03:51.576Z,3.33
2022-11-10T05:06:18.605Z,3.03
2022-11-10T05:08:45.775Z,3.30
2022-11-10T05:11:13.427Z,2.93
2022-11-10T05:13:40.269Z,2.67
2022-11-10T05:16:07.416Z,4.03
2022-11-10T05:18:34.679Z,3.17
2022-11-10T05:21:01.261Z,3.00
2022-11-10T05:23:41.009Z,3.13
2022-11-10T05:26:13.669Z,2.77
2022-11-10T05:28:41.784Z,2.90
2022-11-10T05:31:09.202Z,3.07
2022-11-10T05:33:37.814Z,3.50
2022-11-10T05:36:05.733Z,2.77
2022-11-10T05:38:32.817Z,3.13
2022-11-10T05:41:00.232Z,2.90
2022-11-10T05:43:27.303Z,3.00
2022-11-10T05:45:54.295Z,2.93
2022-11-10T05:48:21.280Z,3.47
2022-11-10T05:50:48.337Z,3.53
2022-11-10T05:53:15.328Z,3.37
2022-11-10T05:55:42.001Z,3.43
2022-11-10T05:58:09.227Z,2.70
2022-11-10T06:00:36.523Z,3.10
2022-11-10T06:03:06.033Z,3.17
2022-11-10T06:05:35.586Z,3.20
2022-11-10T06:08:04.257Z,3.43
2022-11-10T06:10:31.779Z,3.93
2022-11-10T06:12:58.763Z,3.90
2022-11-10T06:15:26.455Z,3.80
2022-11-10T06:17:53.976Z,4.17
2022-11-10T06:20:21.026Z,3.13
2022-11-10T06:23:05.097Z,4.60
2022-11-10T06:25:33.948Z,3.60
2022-11-10T06:28:01.155Z,3.03
2022-11-10T06:30:29.501Z,4.20
2022-11-10T06:32:56.314Z,3.00
2022-11-10T06:35:24.250Z,4.00
2022-11-10T06:38:15.980Z,2.90
2022-11-10T06:40:43.029Z,3.87
2022-11-10T06:43:10.035Z,3.90
2022-11-10T06:45:37.125Z,3.23
2022-11-10T06:48:11.073Z,4.60
2022-11-10T06:50:38.164Z,3.10
2022-11-10T06:53:05.580Z,3.47
2022-11-10T06:55:32.648Z,3.43
2022-11-10T06:57:59.794Z,3.10
2022-11-10T07:00:27.723Z,4.03
2022-11-10T07:03:08.284Z,3.43
2022-11-10T07:05:36.517Z,3.37
2022-11-10T07:08:10.912Z,3.60
2022-11-10T07:10:37.673Z,4.37
2022-11-10T07:13:05.412Z,20.20
2022-11-10T07:15:33.540Z,32.80
2022-11-10T07:18:02.441Z,14.43
2022-11-10T07:20:30.205Z,5.70
2022-11-10T07:23:07.280Z,3.70
2022-11-10T07:25:35.684Z,13.57
2022-11-10T07:28:05.069Z,6.07
2022-11-10T07:30:33.893Z,5.07
2022-11-10T07:33:12.021Z,5.10
2022-11-10T07:35:38.618Z,4.67
2022-11-10T07:38:07.987Z,4.63
2022-11-10T07:40:35.424Z,4.97
2022-11-10T07:43:02.486Z,5.07
2022-11-10T07:45:29.604Z,4.90
2022-11-10T07:48:03.956Z,4.63
2022-11-10T07:50:31.075Z,4.83
2022-11-10T07:53:11.891Z,4.47
2022-11-10T07:55:40.553Z,4.97
2022-11-10T07:58:07.661Z,4.47
2022-11-10T08:00:35.876Z,6.10
2022-11-10T08:03:22.496Z,6.67
2022-11-10T08:05:49.532Z,7.03
2022-11-10T08:08:16.573Z,4.10
2022-11-10T08:10:43.967Z,4.57
2022-11-10T08:13:12.260Z,5.30
2022-11-10T08:15:39.629Z,5.33
2022-11-10T08:18:12.988Z,5.00
2022-11-10T08:20:40.086Z,6.30
2022-11-10T08:23:07.321Z,4.93
2022-11-10T08:25:35.910Z,4.60
2022-11-10T08:28:08.436Z,5.13
2022-11-10T08:30:36.465Z,5.13
2022-11-10T08:33:04.892Z,5.07
2022-11-10T08:35:35.386Z,5.03
2022-11-10T08:38:24.229Z,7.03
2022-11-10T08:40:51.083Z,5.90
2022-11-10T08:43:18.628Z,8.10
2022-11-10T08:45:46.343Z,4.30
2022-11-10T08:48:19.075Z,5.00
2022-11-10T08:50:47.263Z,5.23
2022-11-10T08:53:22.494Z,4.73
2022-11-10T08:55:50.384Z,4.50
2022-11-10T08:58:19.171Z,5.00
2022-11-10T09:00:46.443Z,4.20
2022-11-10T09:03:19.008Z,4.27
2022-11-10T09:05:46.572Z,5.47
2022-11-10T09:08:13.817Z,4.80
2022-11-10T09:10:47.284Z,4.07
2022-11-10T09:13:15.733Z,4.90
2022-11-10T09:15:43.461Z,4.70
2022-11-10T09:18:12.581Z,4.73
2022-11-10T09:20:40.150Z,4.47
2022-11-10T09:23:15.314Z,4.37
2022-11-10T09:25:42.956Z,4.43
2022-11-10T09:28:13.836Z,3.80
2022-11-10T09:30:41.277Z,4.23
2022-11-10T09:33:08.680Z,4.30
2022-11-10T09:35:35.301Z,4.03
2022-11-10T09:38:02.317Z,3.30
2022-11-10T09:41:08.166Z,4.47
2022-11-10T09:44:01.944Z,3.77
2022-11-10T09:46:39.381Z,3.67
2022-11-10T09:49:28.904Z,4.93
2022-11-10T09:51:57.528Z,3.47
2022-11-10T09:54:40.203Z,3.47
2022-11-10T09:57:11.241Z,3.70
2022-11-10T09:59:37.963Z,3.77
2022-11-10T10:02:30.611Z,4.23
2022-11-10T10:05:21.357Z,3.77
2022-11-10T10:08:11.117Z,3.13
2022-11-10T10:10:38.096Z,3.27
2022-11-10T10:13:07.665Z,3.40
2022-11-10T10:15:46.172Z,4.20
2022-11-10T10:18:42.525Z,3.83
2022-11-10T10:21:38.510Z,4.20
2022-11-10T10:24:12.719Z,3.47
2022-11-10T10:26:47.924Z,3.97
2022-11-10T10:29:29.887Z,3.70
2022-11-10T10:32:01.076Z,3.57
2022-11-10T10:34:30.520Z,4.90
2022-11-10T10:36:57.602Z,3.00
2022-11-10T10:39:40.281Z,3.30
2022-11-10T10:42:20.019Z,2.97
2022-11-10T10:45:14.684Z,3.93
2022-11-10T10:47:41.703Z,3.47
2022-11-10T10:50:32.152Z,3.53
2022-11-10T10:53:16.169Z,3.13
2022-11-10T10:56:00.432Z,3.73
2022-11-10T10:58:27.506Z,3.33
2022-11-10T11:01:05.689Z,3.50
2022-11-10T11:03:42.936Z,3.07
2022-11-10T11:06:15.525Z,3.30
2022-11-10T11:09:06.295Z,3.57
2022-11-10T11:11:35.721Z,3.23
2022-11-10T11:14:19.016Z,2.40
2022-11-10T11:16:52.197Z,3.03
2022-11-10T11:19:22.175Z,3.27
2022-11-10T11:22:19.601Z,2.90
2022-11-10T11:24:57.984Z,3.10
2022-11-10T11:27:42.383Z,3.93
2022-11-10T11:30:21.522Z,3.00
2022-11-10T11:32:56.925Z,3.30
2022-11-10T11:36:17.165Z,2.93
2022-11-10T11:39:08.935Z,2.70
2022-11-10T11:41:58.733Z,2.87
2022-11-10T11:44:50.984Z,3.40
2022-11-10T11:47:23.270Z,3.10
2022-11-10T11:50:07.593Z,3.73
2022-11-10T11:52:43.138Z,2.63
2022-11-10T11:55:19.402Z,3.60
2022-11-10T11:58:00.998Z,3.47
2022-11-10T12:00:36.685Z,3.47
2022-11-10T12:03:15.423Z,3.80
2022-11-10T12:05:43.928Z,3.67
2022-11-10T12:08:26.623Z,3.20
2022-11-10T12:11:19.334Z,3.10
2022-11-10T12:13:46.345Z,3.90
2022-11-10T12:16:33.912Z,3.57
2022-11-10T12:19:28.222Z,3.20
2022-11-10T12:22:12.997Z,2.70
2022-11-10T12:25:05.550Z,4.80
2022-11-10T12:27:44.528Z,3.30
2022-11-10T12:30:13.969Z,3.67
2022-11-10T12:32:46.541Z,2.50
2022-11-10T12:35:33.909Z,3.07
2022-11-10T12:38:05.849Z,2.80
2022-11-10T12:40:41.820Z,3.10
2022-11-10T12:43:33.494Z,2.67
2022-11-10T12:46:04.743Z,2.70
2022-11-10T12:48:39.708Z,2.67
2022-11-10T12:51:14.816Z,2.43
2022-11-10T12:53:42.827Z,2.80
2022-11-10T12:56:24.581Z,2.17
2022-11-10T12:59:33.915Z,2.97
2022-11-10T13:02:04.654Z,2.70
2022-11-10T13:04:32.500Z,2.33
2022-11-10T13:07:08.862Z,2.90
2022-11-10T13:09:43.400Z,3.27
2022-11-10T13:12:20.945Z,2.37
2022-11-10T13:14:48.245Z,2.30
2022-11-10T13:17:27.376Z,2.60
2022-11-10T13:20:09.531Z,2.17
2022-11-10T13:22:47.740Z,1.90
2022-11-10T13:25:39.359Z,2.20
2022-11-10T13:28:09.646Z,2.07
2022-11-10T13:30:44.800Z,2.37
2022-11-10T13:33:23.763Z,1.90
2022-11-10T13:35:56.013Z,1.70
2022-11-10T13:38:31.802Z,1.80
2022-11-10T13:41:16.615Z,1.70
2022-11-10T13:43:56.366Z,2.13
2022-11-10T13:47:00.846Z,1.87
2022-11-10T13:49:33.624Z,1.67
2022-11-10T13:52:06.368Z,1.77
2022-11-10T13:54:56.173Z,2.37
2022-11-10T13:57:37.507Z,2.97
2022-11-10T14:00:19.135Z,1.93
2022-11-10T14:03:05.966Z,2.23
2022-11-10T14:05:37.848Z,1.90
2022-11-10T14:08:15.839Z,1.60
2022-11-10T14:10:54.817Z,1.87
2022-11-10T14:13:43.249Z,2.57
2022-11-10T14:16:23.166Z,2.13
2022-11-10T14:18:56.811Z,2.10
2022-11-10T14:21:33.658Z,1.67
2022-11-10T14:24:38.115Z,2.13
2022-11-10T14:27:14.112Z,2.43
2022-11-10T14:29:42.123Z,1.50
2022-11-10T14:32:22.323Z,2.33
2022-11-10T14:34:52.002Z,2.30
2022-11-10T14:37:24.526Z,2.30
2022-11-10T14:39:57.456Z,3.40
2022-11-10T14:42:26.933Z,1.80
2022-11-10T14:45:15.876Z,2.13
2022-11-10T14:47:43.358Z,3.03
2022-11-10T14:50:32.486Z,2.43
2022-11-10T14:53:16.814Z,3.73
2022-11-10T14:55:48.471Z,2.97
2022-11-10T14:58:25.128Z,3.30
2022-11-10T15:00:52.659Z,4.10
2022-11-10T15:03:42.964Z,2.70
2022-11-10T15:06:11.741Z,2.00
2022-11-10T15:08:40.118Z,3.03
2022-11-10T15:11:07.235Z,2.70
2022-11-10T15:13:37.662Z,2.53
2022-11-10T15:16:32.538Z,2.33
2022-11-10T15:19:31.297Z,2.30
2022-11-10T15:22:20.444Z,2.13
2022-11-10T15:24:50.110Z,4.53
2022-11-10T15:27:29.521Z,4.20
2022-11-10T15:29:58.348Z,2.70
2022-11-10T15:32:34.510Z,2.10
2022-11-10T15:35:23.674Z,1.80
2022-11-10T15:38:06.255Z,2.00
2022-11-10T15:40:45.027Z,1.63
2022-11-10T15:43:21.976Z,2.37
2022-11-10T15:46:16.489Z,2.33
2022-11-10T15:48:47.274Z,2.20
2022-11-10T15:51:16.802Z,2.40
2022-11-10T15:53:50.812Z,1.90
2022-11-10T15:56:20.902Z,2.10
2022-11-10T15:58:49.456Z,2.13
2022-11-10T16:01:17.394Z,2.10
2022-11-10T16:03:44.913Z,2.40
2022-11-10T16:06:15.800Z,1.83
2022-11-10T16:08:43.045Z,1.63
2022-11-10T16:11:20.733Z,17.53
2022-11-10T16:13:48.813Z,3.03
2022-11-10T16:16:17.534Z,2.70
2022-11-10T16:18:44.787Z,3.07
2022-11-10T16:21:16.550Z,2.57
2022-11-10T16:23:43.657Z,2.43
2022-11-10T16:26:24.886Z,2.40
2022-11-10T16:28:51.956Z,2.07
2022-11-10T16:31:22.023Z,3.73
2022-11-10T16:33:49.552Z,2.57
2022-11-10T16:36:34.212Z,2.47
2022-11-10T16:39:11.667Z,2.27
2022-11-10T16:41:38.259Z,1.97
2022-11-10T16:44:05.789Z,2.30
2022-11-10T16:46:35.998Z,1.80
2022-11-10T16:49:05.056Z,1.67
2022-11-10T16:51:42.906Z,1.90
2022-11-10T16:54:13.020Z,2.20
2022-11-10T16:56:39.602Z,2.27
2022-11-10T16:59:06.601Z,2.03
2022-11-10T17:01:35.759Z,2.20
2022-11-10T17:04:07.796Z,2.27
2022-11-10T17:06:34.571Z,2.93
2022-11-10T17:09:09.020Z,3.10
2022-11-10T17:11:36.061Z,3.80
2022-11-10T17:14:03.128Z,4.43
2022-11-10T17:16:35.962Z,3.33
2022-11-10T17:19:05.709Z,2.43
2022-11-10T17:21:35.604Z,1.90
2022-11-10T17:24:03.086Z,2.80
2022-11-10T17:26:30.534Z,2.53
2022-11-10T17:28:57.649Z,2.17
2022-11-10T17:31:24.640Z,2.20
2022-11-10T17:33:51.683Z,1.97
2022-11-10T17:36:20.990Z,2.20
2022-11-10T17:38:48.068Z,3.30
2022-11-10T17:41:19.223Z,2.13
2022-11-10T17:43:46.918Z,2.70
2022-11-10T17:46:14.511Z,2.85
2022-11-10T17:48:41.326Z,3.40
2022-11-10T17:51:16.868Z,3.03
2022-11-10T17:53:43.648Z,2.50
2022-11-10T17:56:10.691Z,2.33
2022-11-10T17:58:37.283Z,2.50
2022-11-10T18:01:12.642Z,3.07
2022-11-10T18:03:40.096Z,2.00
2022-11-10T18:06:07.153Z,2.67
2022-11-10T18:08:34.145Z,2.83
2022-11-10T18:11:01.293Z,2.60
2022-11-10T18:13:28.274Z,2.60
2022-11-10T18:15:58.241Z,2.30
2022-11-10T18:18:25.241Z,2.37
2022-11-10T18:20:52.788Z,2.53
2022-11-10T18:23:19.899Z,2.60
2022-11-10T18:25:46.995Z,2.30
2022-11-10T18:28:14.532Z,2.33
2022-11-10T18:30:42.588Z,2.93
2022-11-10T18:33:10.467Z,2.57
2022-11-10T18:35:38.979Z,2.63
2022-11-10T18:38:07.235Z,2.33
2022-11-10T18:40:34.547Z,3.10
2022-11-10T18:43:06.152Z,2.57
2022-11-10T18:45:34.415Z,2.13
2022-11-10T18:48:03.046Z,3.27
2022-11-10T18:50:30.123Z,3.20
2022-11-10T18:52:56.737Z,3.53
2022-11-10T18:55:23.354Z,2.23
2022-11-10T18:57:50.415Z,2.37
2022-11-10T19:00:17.147Z,2.70
2022-11-10T19:02:43.714Z,4.03
2022-11-10T19:05:10.778Z,2.20
2022-11-10T19:07:37.818Z,2.40
2022-11-10T19:10:04.981Z,2.50
2022-11-10T19:12:32.494Z,2.73
2022-11-10T19:14:59.519Z,4.13
2022-11-10T19:17:26.512Z,2.60
2022-11-10T19:19:56.397Z,2.17
2022-11-10T19:22:23.807Z,2.83
2022-11-10T19:25:07.752Z,4.87
2022-11-10T19:27:37.904Z,7.87
2022-11-10T19:30:05.240Z,5.97
2022-11-10T19:32:32.251Z,5.67
2022-11-10T19:34:59.255Z,6.27
2022-11-10T19:37:28.641Z,7.27
2022-11-10T19:39:59.086Z,5.90
2022-11-10T19:42:26.065Z,4.20
2022-11-10T19:44:53.312Z,3.33
2022-11-10T19:47:20.376Z,2.50
2022-11-10T19:49:47.389Z,2.60
2022-11-10T19:52:14.283Z,8.23
2022-11-10T19:54:41.396Z,13.60
2022-11-10T19:57:08.433Z,4.10
2022-11-10T19:59:35.665Z,2.80
2022-11-10T20:02:03.652Z,2.63
2022-11-10T20:04:30.763Z,2.40
2022-11-10T20:07:16.444Z,3.03
2022-11-10T20:09:43.465Z,2.33
2022-11-10T20:12:10.622Z,2.78
2022-11-10T20:14:37.932Z,2.40
2022-11-10T20:17:04.981Z,2.37
2022-11-10T20:19:40.813Z,2.87
2022-11-10T20:22:08.117Z,2.87
2022-11-10T20:24:36.028Z,2.87
2022-11-10T20:27:03.270Z,3.10
2022-11-10T20:29:30.315Z,2.33
2022-11-10T20:31:56.906Z,2.67
2022-11-10T20:34:24.604Z,3.10
2022-11-10T20:36:51.608Z,2.33
2022-11-10T20:39:18.609Z,2.50
2022-11-10T20:41:45.719Z,3.37
2022-11-10T20:44:12.802Z,3.17
2022-11-10T20:46:54.026Z,3.60
2022-11-10T20:49:21.789Z,3.40
2022-11-10T20:51:48.803Z,3.20
2022-11-10T20:54:17.236Z,3.87
2022-11-10T20:56:43.932Z,3.47
2022-11-10T20:59:11.239Z,2.83
2022-11-10T21:01:38.503Z,2.50
2022-11-10T21:04:06.217Z,2.83
2022-11-10T21:06:32.996Z,3.30
2022-11-10T21:09:00.113Z,3.10
2022-11-10T21:11:45.593Z,2.77
2022-11-10T21:14:12.645Z,2.57
2022-11-10T21:16:39.396Z,2.53
2022-11-10T21:19:06.432Z,2.97
2022-11-10T21:21:35.932Z,2.50
2022-11-10T21:24:04.094Z,3.10
2022-11-10T21:26:32.018Z,2.50
2022-11-10T21:28:58.684Z,2.70
2022-11-10T21:31:25.335Z,3.00
2022-11-10T21:33:55.738Z,2.63
2022-11-10T21:36:22.855Z,2.90
2022-11-10T21:38:49.496Z,3.80
2022-11-10T21:41:16.676Z,2.33
2022-11-10T21:43:43.700Z,2.33
2022-11-10T21:46:10.682Z,3.30
2022-11-10T21:48:37.528Z,2.13
2022-11-10T21:51:07.002Z,2.03
2022-11-10T21:53:34.620Z,2.13
2022-11-10T21:56:03.289Z,2.57
2022-11-10T21:58:30.280Z,2.93
2022-11-10T22:01:01.851Z,2.00
2022-11-10T22:03:29.861Z,2.13
2022-11-10T22:05:57.006Z,2.10
2022-11-10T22:08:23.985Z,2.30
2022-11-10T22:11:09.651Z,1.77
2022-11-10T22:13:55.336Z,1.93
2022-11-10T22:16:52.585Z,2.13
2022-11-10T22:19:19.886Z,1.97
2022-11-10T22:21:46.944Z,1.80
2022-11-10T22:24:28.973Z,1.40
2022-11-10T22:26:58.148Z,1.73
2022-11-10T22:29:31.173Z,1.60
2022-11-10T22:32:02.239Z,1.80
2022-11-10T22:34:29.278Z,1.77
2022-11-10T22:36:56.962Z,1.63
2022-11-10T22:39:43.949Z,1.73
2022-11-10T22:42:32.008Z,1.73
2022-11-10T22:44:59.181Z,1.93
2022-11-10T22:47:25.848Z,1.57
2022-11-10T22:49:52.846Z,2.67
2022-11-10T22:52:19.840Z,1.50
2022-11-10T22:54:46.847Z,2.13
2022-11-10T22:57:13.438Z,1.90
2022-11-10T22:59:39.983Z,2.07
2022-11-10T23:02:06.979Z,1.97
2022-11-10T23:04:33.560Z,2.37
2022-11-10T23:07:00.239Z,2.23
2022-11-10T23:09:27.328Z,2.20
2022-11-10T23:11:54.342Z,1.80
2022-11-10T23:14:21.377Z,1.80
2022-11-10T23:16:48.398Z,2.07
2022-11-10T23:19:15.402Z,1.87
2022-11-10T23:21:42.394Z,1.60
2022-11-10T23:24:09.525Z,1.50
2022-11-10T23:26:36.527Z,2.33
2022-11-10T23:29:03.542Z,1.77
2022-11-10T23:31:30.597Z,2.77
2022-11-10T23:33:57.924Z,2.47
2022-11-10T23:36:25.974Z,1.93
2022-11-10T23:38:53.989Z,1.70
2022-11-10T23:41:23.624Z,2.00
2022-11-10T23:43:50.870Z,2.00
2022-11-10T23:46:18.064Z,1.57
2022-11-10T23:48:45.083Z,2.00
2022-11-10T23:51:14.265Z,2.20
2022-11-10T23:53:41.341Z,2.87
2022-11-10T23:56:11.817Z,1.57
2022-11-10T23:58:38.829Z,2.13
